createdAt,value
2023-06-11T00:00:51.840Z,18.68
2023-06-11T00:01:55.326Z,18.70
2023-06-11T00:02:59.366Z,18.71
2023-06-11T00:04:03.366Z,18.73
2023-06-11T00:05:10.262Z,18.72
2023-06-11T00:06:14.180Z,18.71
2023-06-11T00:07:18.062Z,18.68
2023-06-11T00:08:21.921Z,18.69
2023-06-11T00:09:25.709Z,18.69
2023-06-11T00:10:30.070Z,18.69
2023-06-11T00:11:33.124Z,18.71
2023-06-11T00:12:36.584Z,18.73
2023-06-11T00:13:40.281Z,18.69
2023-06-11T00:14:44.201Z,18.68
2023-06-11T00:15:47.607Z,18.67
2023-06-11T00:16:50.973Z,18.65
2023-06-11T00:17:54.422Z,18.62
2023-06-11T00:18:57.517Z,18.50
2023-06-11T00:20:05.292Z,18.43
2023-06-11T00:21:10.279Z,18.38
2023-06-11T00:22:13.947Z,18.34
2023-06-11T00:23:16.776Z,18.32
2023-06-11T00:24:20.295Z,18.30
2023-06-11T00:25:23.769Z,18.29
2023-06-11T00:26:27.969Z,18.30
2023-06-11T00:27:31.541Z,18.25
2023-06-11T00:28:35.190Z,18.27
2023-06-11T00:29:38.371Z,18.23
2023-06-11T00:30:41.732Z,18.17
2023-06-11T00:31:45.009Z,18.06
2023-06-11T00:32:48.212Z,17.94
2023-06-11T00:33:51.679Z,17.87
2023-06-11T00:34:55.007Z,17.83
2023-06-11T00:35:58.290Z,17.83
2023-06-11T00:37:01.392Z,17.83
2023-06-11T00:38:05.130Z,17.79
2023-06-11T00:39:08.876Z,17.82
2023-06-11T00:40:13.538Z,17.81
2023-06-11T00:41:17.278Z,17.84
2023-06-11T00:42:21.100Z,17.86
2023-06-11T00:43:25.825Z,17.84
2023-06-11T00:44:31.571Z,17.80
2023-06-11T00:45:36.857Z,17.74
2023-06-11T00:46:43.542Z,17.70
2023-06-11T00:47:46.993Z,17.71
2023-06-11T00:48:51.689Z,17.72
2023-06-11T00:49:55.799Z,17.71
2023-06-11T00:50:58.974Z,17.67
2023-06-11T00:52:02.580Z,17.58
2023-06-11T00:53:06.108Z,17.48
2023-06-11T00:54:23.467Z,17.40
2023-06-11T00:55:27.383Z,17.29
2023-06-11T00:56:31.301Z,17.23
2023-06-11T00:57:37.158Z,17.21
2023-06-11T00:58:41.917Z,17.18
2023-06-11T00:59:50.075Z,17.19
2023-06-11T01:00:57.380Z,17.19
2023-06-11T01:02:18.864Z,17.23
2023-06-11T01:03:23.734Z,17.29
2023-06-11T01:04:27.391Z,17.34
2023-06-11T01:05:33.656Z,17.34
2023-06-11T01:06:38.172Z,17.40
2023-06-11T01:07:52.566Z,17.41
2023-06-11T01:09:02.756Z,17.42
2023-06-11T01:10:11.022Z,17.46
2023-06-11T01:11:24.990Z,17.46
2023-06-11T01:12:34.020Z,17.47
2023-06-11T01:13:38.458Z,17.47
2023-06-11T01:14:41.816Z,17.48
2023-06-11T01:15:44.803Z,17.45
2023-06-11T01:17:10.624Z,17.45
2023-06-11T01:18:20.760Z,17.44
2023-06-11T01:20:05.391Z,17.45
2023-06-11T01:21:19.480Z,17.47
2023-06-11T01:22:52.426Z,17.47
2023-06-11T01:24:24.417Z,17.45
2023-06-11T01:25:39.591Z,17.46
2023-06-11T01:27:06.940Z,17.48
2023-06-11T01:28:11.765Z,17.51
2023-06-11T01:29:15.429Z,17.53
2023-06-11T01:30:22.228Z,17.51
2023-06-11T01:31:28.236Z,17.52
2023-06-11T01:32:32.368Z,17.52
2023-06-11T01:33:38.351Z,17.51
2023-06-11T01:34:44.754Z,17.52
2023-06-11T01:35:59.551Z,17.54
2023-06-11T01:37:07.656Z,17.55
2023-06-11T01:38:11.587Z,17.54
2023-06-11T01:39:26.827Z,17.54
2023-06-11T01:40:36.304Z,17.49
2023-06-11T01:41:40.299Z,17.50
2023-06-11T01:42:45.057Z,17.48
2023-06-11T01:43:48.299Z,17.46
2023-06-11T01:44:51.615Z,17.49
2023-06-11T01:45:57.830Z,17.50
2023-06-11T01:47:01.538Z,17.47
2023-06-11T01:48:04.940Z,17.43
2023-06-11T01:49:09.129Z,17.37
2023-06-11T01:50:14.316Z,17.31
2023-06-11T01:51:17.879Z,17.25
2023-06-11T01:52:21.762Z,17.21
2023-06-11T01:53:25.179Z,17.15
2023-06-11T01:54:29.033Z,17.16
2023-06-11T01:55:32.554Z,17.19
2023-06-11T01:56:36.051Z,17.22
2023-06-11T01:57:39.379Z,17.25
2023-06-11T01:58:47.095Z,17.26
2023-06-11T01:59:51.050Z,17.29
2023-06-11T02:00:54.977Z,17.30
2023-06-11T02:01:58.419Z,17.28
2023-06-11T02:03:04.082Z,17.26
2023-06-11T02:04:07.312Z,17.24
2023-06-11T02:05:11.133Z,17.22
2023-06-11T02:06:14.917Z,17.23
2023-06-11T02:07:18.402Z,17.24
2023-06-11T02:08:22.610Z,17.26
2023-06-11T02:09:26.056Z,17.23
2023-06-11T02:10:29.176Z,17.22
2023-06-11T02:11:33.048Z,17.21
2023-06-11T02:12:37.122Z,17.19
2023-06-11T02:13:40.369Z,17.14
2023-06-11T02:14:44.070Z,17.11
2023-06-11T02:15:47.637Z,17.10
2023-06-11T02:16:52.190Z,17.09
2023-06-11T02:17:56.077Z,17.11
2023-06-11T02:18:59.776Z,17.10
2023-06-11T02:20:07.548Z,17.10
2023-06-11T02:21:11.059Z,17.10
2023-06-11T02:22:14.365Z,17.09
2023-06-11T02:23:17.807Z,17.11
2023-06-11T02:24:22.072Z,17.09
2023-06-11T02:25:25.651Z,17.06
2023-06-11T02:26:31.067Z,17.05
2023-06-11T02:27:34.720Z,17.05
2023-06-11T02:28:39.812Z,17.03
2023-06-11T02:29:43.801Z,17.02
2023-06-11T02:30:47.502Z,17.03
2023-06-11T02:31:51.622Z,17.03
2023-06-11T02:32:55.186Z,17.04
2023-06-11T02:33:58.597Z,17.06
2023-06-11T02:35:01.973Z,17.08
2023-06-11T02:36:05.971Z,17.09
2023-06-11T02:37:10.574Z,17.08
2023-06-11T02:38:13.855Z,17.11
2023-06-11T02:39:16.970Z,17.12
2023-06-11T02:40:20.080Z,17.12
2023-06-11T02:41:23.409Z,17.15
2023-06-11T02:42:26.634Z,17.16
2023-06-11T02:43:29.894Z,17.15
2023-06-11T02:44:33.464Z,17.15
2023-06-11T02:45:37.497Z,17.15
2023-06-11T02:46:41.617Z,17.17
2023-06-11T02:47:45.062Z,17.17
2023-06-11T02:48:48.541Z,17.16
2023-06-11T02:49:52.166Z,17.16
2023-06-11T02:50:55.987Z,17.13
2023-06-11T02:51:59.705Z,17.10
2023-06-11T02:53:03.371Z,17.09
2023-06-11T02:54:06.737Z,17.07
2023-06-11T02:55:10.601Z,17.09
2023-06-11T02:56:14.480Z,17.07
2023-06-11T02:57:18.012Z,17.09
2023-06-11T02:58:21.698Z,17.08
2023-06-11T02:59:24.721Z,17.09
2023-06-11T03:00:28.267Z,17.11
2023-06-11T03:01:31.636Z,17.12
2023-06-11T03:02:34.960Z,17.12
2023-06-11T03:03:38.167Z,17.17
2023-06-11T03:04:41.671Z,17.13
2023-06-11T03:05:45.144Z,17.14
2023-06-11T03:06:48.922Z,17.10
2023-06-11T03:07:52.594Z,17.09
2023-06-11T03:08:56.192Z,17.09
2023-06-11T03:09:59.592Z,17.07
2023-06-11T03:11:02.758Z,17.07
2023-06-11T03:12:14.665Z,17.10
2023-06-11T03:13:18.085Z,17.10
2023-06-11T03:14:26.567Z,17.10
2023-06-11T03:15:30.393Z,17.10
2023-06-11T03:16:35.116Z,17.09
2023-06-11T03:17:38.716Z,17.10
2023-06-11T03:18:43.347Z,17.08
2023-06-11T03:19:46.459Z,17.06
2023-06-11T03:20:50.278Z,17.04
2023-06-11T03:21:54.122Z,17.04
2023-06-11T03:22:57.187Z,17.05
2023-06-11T03:24:00.789Z,17.00
2023-06-11T03:25:04.526Z,16.98
2023-06-11T03:26:11.917Z,16.95
2023-06-11T03:27:19.837Z,16.93
2023-06-11T03:28:23.497Z,16.92
2023-06-11T03:29:27.258Z,16.92
2023-06-11T03:30:33.471Z,16.90
2023-06-11T03:31:40.664Z,16.92
2023-06-11T03:32:44.422Z,16.90
2023-06-11T03:33:49.166Z,16.90
2023-06-11T03:34:54.623Z,16.88
2023-06-11T03:36:00.241Z,16.87
2023-06-11T03:37:03.951Z,16.86
2023-06-11T03:38:07.587Z,16.85
2023-06-11T03:39:11.797Z,16.86
2023-06-11T03:40:15.419Z,16.91
2023-06-11T03:41:18.682Z,16.88
2023-06-11T03:42:21.967Z,16.91
2023-06-11T03:43:25.783Z,16.91
2023-06-11T03:44:29.146Z,16.90
2023-06-11T03:45:32.745Z,16.92
2023-06-11T03:46:36.178Z,16.89
2023-06-11T03:47:39.606Z,16.86
2023-06-11T03:48:42.687Z,16.86
2023-06-11T03:49:46.289Z,16.85
2023-06-11T03:50:50.124Z,16.86
2023-06-11T03:51:53.596Z,16.85
2023-06-11T03:52:56.936Z,16.83
2023-06-11T03:54:01.196Z,16.83
2023-06-11T03:55:04.631Z,16.82
2023-06-11T03:56:07.941Z,16.83
2023-06-11T03:57:12.259Z,16.86
2023-06-11T03:58:15.950Z,16.85
2023-06-11T03:59:19.476Z,16.83
2023-06-11T04:00:23.321Z,16.81
2023-06-11T04:01:26.875Z,16.82
2023-06-11T04:02:31.186Z,16.81
2023-06-11T04:03:35.107Z,16.78
2023-06-11T04:04:39.034Z,16.76
2023-06-11T04:05:43.673Z,16.75
2023-06-11T04:06:47.661Z,16.72
2023-06-11T04:07:52.474Z,16.65
2023-06-11T04:08:56.665Z,16.61
2023-06-11T04:10:00.568Z,16.56
2023-06-11T04:11:04.267Z,16.55
2023-06-11T04:12:08.237Z,16.48
2023-06-11T04:13:12.229Z,16.45
2023-06-11T04:14:16.446Z,16.40
2023-06-11T04:15:19.837Z,16.32
2023-06-11T04:16:24.028Z,16.26
2023-06-11T04:17:27.985Z,16.24
2023-06-11T04:18:31.377Z,16.27
2023-06-11T04:19:35.273Z,16.23
2023-06-11T04:20:39.333Z,16.21
2023-06-11T04:21:43.255Z,16.16
2023-06-11T04:22:46.870Z,16.16
2023-06-11T04:23:50.221Z,16.17
2023-06-11T04:24:55.304Z,16.13
2023-06-11T04:25:59.732Z,16.13
2023-06-11T04:27:08.896Z,16.09
2023-06-11T04:28:12.630Z,16.02
2023-06-11T04:29:17.864Z,16.04
2023-06-11T04:30:22.529Z,16.03
2023-06-11T04:31:29.498Z,15.98
2023-06-11T04:32:36.872Z,15.99
2023-06-11T04:33:42.485Z,15.99
2023-06-11T04:34:50.298Z,16.02
2023-06-11T04:35:54.764Z,16.04
2023-06-11T04:36:59.184Z,16.04
2023-06-11T04:38:05.180Z,16.06
2023-06-11T04:39:09.746Z,16.10
2023-06-11T04:40:15.150Z,16.12
2023-06-11T04:41:19.636Z,16.16
2023-06-11T04:42:28.135Z,16.13
2023-06-11T04:43:35.239Z,16.09
2023-06-11T04:44:39.152Z,16.01
2023-06-11T04:45:44.655Z,15.93
2023-06-11T04:46:49.501Z,15.85
2023-06-11T04:47:53.720Z,15.78
2023-06-11T04:49:01.359Z,15.77
2023-06-11T04:50:06.850Z,15.77
2023-06-11T04:51:13.791Z,15.81
2023-06-11T04:52:20.592Z,15.86
2023-06-11T04:53:24.519Z,15.91
2023-06-11T04:54:30.182Z,15.95
2023-06-11T04:55:40.534Z,16.01
2023-06-11T04:56:43.882Z,16.04
2023-06-11T04:57:48.475Z,16.07
2023-06-11T04:58:52.421Z,16.06
2023-06-11T04:59:55.657Z,16.05
2023-06-11T05:00:59.516Z,16.06
2023-06-11T05:02:03.589Z,16.09
2023-06-11T05:03:09.102Z,16.11
2023-06-11T05:04:16.045Z,16.14
2023-06-11T05:05:19.746Z,16.17
2023-06-11T05:06:23.084Z,16.17
2023-06-11T05:07:27.352Z,16.19
2023-06-11T05:08:30.932Z,16.19
2023-06-11T05:09:37.247Z,16.10
2023-06-11T05:10:40.986Z,16.06
2023-06-11T05:11:45.415Z,16.07
2023-06-11T05:12:52.143Z,16.02
2023-06-11T05:13:57.153Z,16.00
2023-06-11T05:15:01.191Z,15.94
2023-06-11T05:16:07.827Z,15.92
2023-06-11T05:17:12.435Z,15.94
2023-06-11T05:18:16.631Z,15.98
2023-06-11T05:19:20.048Z,16.06
2023-06-11T05:20:28.068Z,16.11
2023-06-11T05:21:31.498Z,16.16
2023-06-11T05:22:35.011Z,16.19
2023-06-11T05:23:41.145Z,16.26
2023-06-11T05:24:49.549Z,16.32
2023-06-11T05:25:52.901Z,16.41
2023-06-11T05:26:58.431Z,16.47
2023-06-11T05:28:08.048Z,16.50
2023-06-11T05:29:12.380Z,16.55
2023-06-11T05:30:17.600Z,16.60
2023-06-11T05:31:23.195Z,16.62
2023-06-11T05:32:27.593Z,16.65
2023-06-11T05:33:32.387Z,16.67
2023-06-11T05:34:36.392Z,16.69
2023-06-11T05:35:44.635Z,16.72
2023-06-11T05:36:50.346Z,16.78
2023-06-11T05:37:58.047Z,16.84
2023-06-11T05:39:02.592Z,16.92
2023-06-11T05:40:08.111Z,16.99
2023-06-11T05:41:11.989Z,17.08
2023-06-11T05:42:15.704Z,17.17
2023-06-11T05:43:21.095Z,17.28
2023-06-11T05:44:24.641Z,17.40
2023-06-11T05:45:28.399Z,17.66
2023-06-11T05:46:32.579Z,18.07
2023-06-11T05:47:37.836Z,18.61
2023-06-11T05:48:42.830Z,19.14
2023-06-11T05:49:47.206Z,19.74
2023-06-11T05:50:50.987Z,20.30
2023-06-11T05:51:54.609Z,20.88
2023-06-11T05:52:58.291Z,21.40
2023-06-11T05:54:02.003Z,21.91
2023-06-11T05:55:06.718Z,22.40
2023-06-11T05:56:10.873Z,22.82
2023-06-11T05:57:26.525Z,23.29
2023-06-11T05:58:36.358Z,23.67
2023-06-11T05:59:41.174Z,23.98
2023-06-11T06:00:44.651Z,24.27
2023-06-11T06:01:47.966Z,24.53
2023-06-11T06:02:54.802Z,24.74
2023-06-11T06:04:04.045Z,24.94
2023-06-11T06:05:08.906Z,25.03
2023-06-11T06:06:12.534Z,25.14
2023-06-11T06:07:16.543Z,25.26
2023-06-11T06:08:20.914Z,25.50
2023-06-11T06:09:24.377Z,25.75
2023-06-11T06:10:28.720Z,25.86
2023-06-11T06:11:32.816Z,25.96
2023-06-11T06:12:36.335Z,26.10
2023-06-11T06:13:40.329Z,26.11
2023-06-11T06:14:44.202Z,25.93
2023-06-11T06:15:47.385Z,25.73
2023-06-11T06:16:50.499Z,25.46
2023-06-11T06:17:59.014Z,25.09
2023-06-11T06:19:12.264Z,24.65
2023-06-11T06:20:15.878Z,24.18
2023-06-11T06:21:19.576Z,23.72
2023-06-11T06:22:22.788Z,23.38
2023-06-11T06:23:26.481Z,23.05
2023-06-11T06:24:37.850Z,22.75
2023-06-11T06:25:43.319Z,22.49
2023-06-11T06:26:53.429Z,22.26
2023-06-11T06:27:56.599Z,22.05
2023-06-11T06:29:00.720Z,21.88
2023-06-11T06:30:05.692Z,21.73
2023-06-11T06:31:09.517Z,21.61
2023-06-11T06:32:14.340Z,21.49
2023-06-11T06:33:18.164Z,21.38
2023-06-11T06:34:21.866Z,21.32
2023-06-11T06:35:25.412Z,21.27
2023-06-11T06:36:29.015Z,21.25
2023-06-11T06:37:33.262Z,21.24
2023-06-11T06:38:37.827Z,21.25
2023-06-11T06:39:42.827Z,21.24
2023-06-11T06:40:46.435Z,21.22
2023-06-11T06:41:49.483Z,21.20
2023-06-11T06:42:57.251Z,21.17
2023-06-11T06:44:06.605Z,21.15
2023-06-11T06:45:12.144Z,21.17
2023-06-11T06:46:16.260Z,21.15
2023-06-11T06:47:21.407Z,21.14
2023-06-11T06:48:25.293Z,21.11
2023-06-11T06:49:31.332Z,21.10
2023-06-11T06:50:34.959Z,21.10
2023-06-11T06:51:39.477Z,21.12
2023-06-11T06:52:43.344Z,21.13
2023-06-11T06:53:48.494Z,21.15
2023-06-11T06:54:53.070Z,21.19
2023-06-11T06:55:56.820Z,21.23
2023-06-11T06:57:00.682Z,21.27
2023-06-11T06:58:04.297Z,21.30
2023-06-11T06:59:08.729Z,21.33
2023-06-11T07:00:16.794Z,21.37
2023-06-11T07:01:21.093Z,21.39
2023-06-11T07:02:25.118Z,21.41
2023-06-11T07:03:29.604Z,21.46
2023-06-11T07:04:33.300Z,21.51
2023-06-11T07:05:36.494Z,21.57
2023-06-11T07:06:40.632Z,21.60
2023-06-11T07:07:44.989Z,21.66
2023-06-11T07:08:48.800Z,21.69
2023-06-11T07:09:52.712Z,21.73
2023-06-11T07:10:56.860Z,21.82
2023-06-11T07:12:14.798Z,21.91
2023-06-11T07:13:18.464Z,22.07
2023-06-11T07:14:22.381Z,22.28
2023-06-11T07:15:25.875Z,22.39
2023-06-11T07:16:29.511Z,22.48
2023-06-11T07:17:37.041Z,22.58
2023-06-11T07:18:41.119Z,22.65
2023-06-11T07:19:44.320Z,22.73
2023-06-11T07:20:48.422Z,22.81
2023-06-11T07:21:52.066Z,22.87
2023-06-11T07:22:55.830Z,22.92
2023-06-11T07:24:00.589Z,22.98
2023-06-11T07:25:04.155Z,23.02
2023-06-11T07:26:07.385Z,23.06
2023-06-11T07:27:11.998Z,23.11
2023-06-11T07:28:15.929Z,23.17
2023-06-11T07:29:21.755Z,23.27
2023-06-11T07:30:26.462Z,23.34
2023-06-11T07:31:29.736Z,23.35
2023-06-11T07:32:33.411Z,23.42
2023-06-11T07:33:37.399Z,23.47
2023-06-11T07:34:42.148Z,23.55
2023-06-11T07:35:48.881Z,23.61
2023-06-11T07:36:52.604Z,23.68
2023-06-11T07:37:57.742Z,23.70
2023-06-11T07:39:01.779Z,23.66
2023-06-11T07:40:07.626Z,23.61
2023-06-11T07:41:12.005Z,23.53
2023-06-11T07:42:15.252Z,23.40
2023-06-11T07:43:18.874Z,23.32
2023-06-11T07:44:22.202Z,23.23
2023-06-11T07:45:25.306Z,23.16
2023-06-11T07:46:28.590Z,23.08
2023-06-11T07:47:32.370Z,23.03
2023-06-11T07:48:36.161Z,22.99
2023-06-11T07:49:39.882Z,22.99
2023-06-11T07:50:43.794Z,23.05
2023-06-11T07:51:50.420Z,23.06
2023-06-11T07:52:55.318Z,23.15
2023-06-11T07:54:02.329Z,23.28
2023-06-11T07:55:05.670Z,23.53
2023-06-11T07:56:09.176Z,23.67
2023-06-11T07:57:14.900Z,23.77
2023-06-11T07:58:19.979Z,23.82
2023-06-11T07:59:23.077Z,23.67
2023-06-11T08:00:26.641Z,23.53
2023-06-11T08:01:29.864Z,23.29
2023-06-11T08:02:33.509Z,23.17
2023-06-11T08:03:37.196Z,22.88
2023-06-11T08:04:40.205Z,22.64
2023-06-11T08:05:43.557Z,22.52
2023-06-11T08:06:46.882Z,22.56
2023-06-11T08:07:50.692Z,22.47
2023-06-11T08:08:54.550Z,22.43
2023-06-11T08:09:58.324Z,22.34
2023-06-11T08:11:01.765Z,22.29
2023-06-11T08:12:08.820Z,22.29
2023-06-11T08:13:12.542Z,22.29
2023-06-11T08:14:15.661Z,22.29
2023-06-11T08:15:19.444Z,22.33
2023-06-11T08:16:22.638Z,22.44
2023-06-11T08:17:25.816Z,22.64
2023-06-11T08:18:29.406Z,22.83
2023-06-11T08:19:33.182Z,23.09
2023-06-11T08:20:36.757Z,23.27
2023-06-11T08:21:40.218Z,23.40
2023-06-11T08:22:43.924Z,23.48
2023-06-11T08:23:47.665Z,23.63
2023-06-11T08:24:51.173Z,23.83
2023-06-11T08:25:56.222Z,23.94
2023-06-11T08:27:00.085Z,24.05
2023-06-11T08:28:03.913Z,24.08
2023-06-11T08:29:07.752Z,24.12
2023-06-11T08:30:11.497Z,24.11
2023-06-11T08:31:15.248Z,24.16
2023-06-11T08:32:18.276Z,24.28
2023-06-11T08:33:22.039Z,24.32
2023-06-11T08:34:25.714Z,24.50
2023-06-11T08:35:29.715Z,24.85
2023-06-11T08:36:33.808Z,25.61
2023-06-11T08:37:37.111Z,26.16
2023-06-11T08:38:41.039Z,26.92
2023-06-11T08:39:44.538Z,27.34
2023-06-11T08:40:48.451Z,27.65
2023-06-11T08:41:52.173Z,27.61
2023-06-11T08:42:55.618Z,27.51
2023-06-11T08:43:59.448Z,27.26
2023-06-11T08:45:03.671Z,26.89
2023-06-11T08:46:07.434Z,26.58
2023-06-11T08:47:13.604Z,25.82
2023-06-11T08:48:20.835Z,25.56
2023-06-11T08:49:25.088Z,25.49
2023-06-11T08:50:28.681Z,25.56
2023-06-11T08:51:37.837Z,25.56
2023-06-11T08:52:41.507Z,25.56
2023-06-11T08:53:44.868Z,25.54
2023-06-11T08:54:48.570Z,25.51
2023-06-11T08:55:52.232Z,25.47
2023-06-11T08:56:55.433Z,25.25
2023-06-11T08:57:58.971Z,25.24
2023-06-11T08:59:02.641Z,25.18
2023-06-11T09:00:09.541Z,25.02
2023-06-11T09:01:13.663Z,24.91
2023-06-11T09:02:16.895Z,24.91
2023-06-11T09:03:20.416Z,24.85
2023-06-11T09:04:24.365Z,24.86
2023-06-11T09:05:28.041Z,24.80
2023-06-11T09:06:31.995Z,25.15
2023-06-11T09:07:37.406Z,25.48
2023-06-11T09:08:41.212Z,25.99
2023-06-11T09:09:44.424Z,26.38
2023-06-11T09:10:53.449Z,27.07
2023-06-11T09:11:56.455Z,27.45
2023-06-11T09:13:01.087Z,27.74
2023-06-11T09:14:04.691Z,27.97
2023-06-11T09:15:08.213Z,28.04
2023-06-11T09:16:11.841Z,27.99
2023-06-11T09:17:17.813Z,27.92
2023-06-11T09:18:22.008Z,27.88
2023-06-11T09:19:25.487Z,27.89
2023-06-11T09:20:29.070Z,28.23
2023-06-11T09:21:32.261Z,28.96
2023-06-11T09:22:37.184Z,29.73
2023-06-11T09:23:40.833Z,30.79
2023-06-11T09:24:44.225Z,31.61
2023-06-11T09:25:48.005Z,32.00
2023-06-11T09:26:54.064Z,32.24
2023-06-11T09:27:57.402Z,32.62
2023-06-11T09:29:04.332Z,33.01
2023-06-11T09:30:10.096Z,33.71
2023-06-11T09:31:14.260Z,34.44
2023-06-11T09:33:28.839Z,35.68
2023-06-11T09:34:32.664Z,36.29
2023-06-11T09:35:35.981Z,36.82
2023-06-11T09:36:39.553Z,37.34
2023-06-11T09:38:03.826Z,37.68
2023-06-11T09:39:07.479Z,37.70
2023-06-11T09:40:12.742Z,37.62
2023-06-11T09:41:19.511Z,37.73
2023-06-11T09:42:25.894Z,37.85
2023-06-11T09:43:29.392Z,37.58
2023-06-11T09:44:35.828Z,37.44
2023-06-11T09:45:39.503Z,37.36
2023-06-11T09:46:43.720Z,36.98
2023-06-11T09:47:48.405Z,36.53
2023-06-11T09:48:52.334Z,35.68
2023-06-11T09:49:56.074Z,35.31
2023-06-11T09:50:59.742Z,34.92
2023-06-11T09:52:03.121Z,34.37
2023-06-11T09:53:07.888Z,34.23
2023-06-11T09:54:16.926Z,34.23
2023-06-11T09:55:20.391Z,33.93
2023-06-11T09:56:23.927Z,33.87
2023-06-11T09:57:27.727Z,33.83
2023-06-11T09:58:31.151Z,33.27
2023-06-11T09:59:34.475Z,33.35
2023-06-11T10:00:38.000Z,33.28
2023-06-11T10:01:42.960Z,33.22
2023-06-11T10:02:46.527Z,33.47
2023-06-11T10:03:49.778Z,33.75
2023-06-11T10:04:52.947Z,33.51
2023-06-11T10:05:56.717Z,33.76
2023-06-11T10:07:00.231Z,33.95
2023-06-11T10:08:07.237Z,34.67
2023-06-11T10:09:12.801Z,34.89
2023-06-11T10:10:21.348Z,34.68
2023-06-11T10:11:25.290Z,34.23
2023-06-11T10:12:34.330Z,33.32
2023-06-11T10:13:39.082Z,32.80
2023-06-11T10:14:42.084Z,32.56
2023-06-11T10:15:45.365Z,32.24
2023-06-11T10:16:52.555Z,31.58
2023-06-11T10:17:56.352Z,30.83
2023-06-11T10:19:09.705Z,30.48
2023-06-11T10:20:33.506Z,30.11
2023-06-11T10:21:51.117Z,30.16
2023-06-11T10:23:07.375Z,31.09
2023-06-11T10:24:28.389Z,32.13
2023-06-11T10:25:41.437Z,33.20
2023-06-11T10:26:45.631Z,33.32
2023-06-11T10:27:48.648Z,33.16
2023-06-11T10:28:53.022Z,33.15
2023-06-11T10:29:56.918Z,33.35
2023-06-11T10:31:00.125Z,34.02
2023-06-11T10:32:03.944Z,34.35
2023-06-11T10:33:07.779Z,34.12
2023-06-11T10:34:15.451Z,33.89
2023-06-11T10:35:25.964Z,33.71
2023-06-11T10:36:37.366Z,34.06
2023-06-11T10:37:42.797Z,33.66
2023-06-11T10:38:46.013Z,33.51
2023-06-11T10:39:52.677Z,33.71
2023-06-11T10:41:03.345Z,34.40
2023-06-11T10:42:07.484Z,35.01
2023-06-11T10:43:22.070Z,34.77
2023-06-11T10:44:28.464Z,34.66
2023-06-11T10:45:38.536Z,34.40
2023-06-11T10:46:53.751Z,33.97
2023-06-11T10:48:01.541Z,33.74
2023-06-11T10:49:13.799Z,33.45
2023-06-11T10:50:27.051Z,33.02
2023-06-11T10:51:40.472Z,32.53
2023-06-11T10:52:57.553Z,31.97
2023-06-11T10:54:00.963Z,31.69
2023-06-11T10:55:04.559Z,32.05
2023-06-11T10:56:16.675Z,31.92
2023-06-11T10:57:21.509Z,31.73
2023-06-11T10:58:25.652Z,31.68
2023-06-11T10:59:29.269Z,31.60
2023-06-11T11:00:35.808Z,31.62
2023-06-11T11:01:39.132Z,31.60
2023-06-11T11:02:42.415Z,32.06
2023-06-11T11:03:45.852Z,32.36
2023-06-11T11:04:52.622Z,32.93
2023-06-11T11:05:55.644Z,32.92
2023-06-11T11:07:10.495Z,32.72
2023-06-11T11:08:16.815Z,32.79
2023-06-11T11:09:23.701Z,33.57
2023-06-11T11:10:27.731Z,33.81
2023-06-11T11:11:31.481Z,34.28
2023-06-11T11:12:40.128Z,34.35
2023-06-11T11:13:43.598Z,34.21
2023-06-11T11:14:46.973Z,33.89
2023-06-11T11:15:50.845Z,33.40
2023-06-11T11:16:54.357Z,33.22
2023-06-11T11:17:57.710Z,33.34
2023-06-11T11:19:01.218Z,33.48
2023-06-11T11:20:12.284Z,33.39
2023-06-11T11:21:16.660Z,33.44
2023-06-11T11:22:20.142Z,33.50
2023-06-11T11:23:26.096Z,33.82
2023-06-11T11:24:29.300Z,34.35
2023-06-11T11:25:34.426Z,34.93
2023-06-11T11:26:44.296Z,35.56
2023-06-11T11:27:49.170Z,35.82
2023-06-11T11:28:53.337Z,35.75
2023-06-11T11:30:03.238Z,35.55
2023-06-11T11:31:08.657Z,34.93
2023-06-11T11:32:12.421Z,34.91
2023-06-11T11:33:16.426Z,35.12
2023-06-11T11:34:21.604Z,35.51
2023-06-11T11:35:27.326Z,35.30
2023-06-11T11:36:31.198Z,35.44
2023-06-11T11:37:35.446Z,35.24
2023-06-11T11:38:39.207Z,35.11
2023-06-11T11:39:42.795Z,35.24
2023-06-11T11:40:46.266Z,35.11
2023-06-11T11:41:52.859Z,35.28
2023-06-11T11:43:00.159Z,35.25
2023-06-11T11:44:03.768Z,35.05
2023-06-11T11:45:08.265Z,34.63
2023-06-11T11:46:26.306Z,33.91
2023-06-11T11:47:30.052Z,32.11
2023-06-11T11:48:34.659Z,31.81
2023-06-11T11:49:37.848Z,31.12
2023-06-11T11:50:42.177Z,30.77
2023-06-11T11:51:53.119Z,30.54
2023-06-11T11:53:07.305Z,30.24
2023-06-11T11:54:15.165Z,30.14
2023-06-11T11:55:18.830Z,30.04
2023-06-11T11:56:22.008Z,30.12
2023-06-11T11:57:27.969Z,30.41
2023-06-11T11:58:38.298Z,30.37
2023-06-11T11:59:41.927Z,30.31
2023-06-11T12:01:03.869Z,30.48
2023-06-11T12:02:08.474Z,30.03
2023-06-11T12:03:12.652Z,29.87
2023-06-11T12:04:16.127Z,29.90
2023-06-11T12:05:19.835Z,29.95
2023-06-11T12:06:26.765Z,29.81
2023-06-11T12:07:30.057Z,29.55
2023-06-11T12:08:33.717Z,29.51
2023-06-11T12:09:40.112Z,29.45
2023-06-11T12:10:43.589Z,29.29
2023-06-11T12:12:03.756Z,29.05
2023-06-11T12:13:08.782Z,28.60
2023-06-11T12:14:12.387Z,28.28
2023-06-11T12:15:15.860Z,28.09
2023-06-11T12:16:19.069Z,28.07
2023-06-11T12:17:22.247Z,28.02
2023-06-11T12:18:25.858Z,28.10
2023-06-11T12:19:31.871Z,28.12
2023-06-11T12:20:34.849Z,28.07
2023-06-11T12:21:38.073Z,28.02
2023-06-11T12:22:41.871Z,27.80
2023-06-11T12:23:45.710Z,27.46
2023-06-11T12:24:49.698Z,27.50
2023-06-11T12:25:53.190Z,27.62
2023-06-11T12:26:56.437Z,27.62
2023-06-11T12:28:00.720Z,27.68
2023-06-11T12:29:04.540Z,27.63
2023-06-11T12:30:09.244Z,27.63
2023-06-11T12:31:12.738Z,27.47
2023-06-11T12:32:16.615Z,27.49
2023-06-11T12:33:20.490Z,27.51
2023-06-11T12:34:24.414Z,27.44
2023-06-11T12:35:32.289Z,27.49
2023-06-11T12:36:35.757Z,27.41
2023-06-11T12:37:38.716Z,27.46
2023-06-11T12:38:42.133Z,27.42
2023-06-11T12:39:45.597Z,27.70
2023-06-11T12:40:50.136Z,27.91
2023-06-11T12:41:53.349Z,27.84
2023-06-11T12:43:01.058Z,27.83
2023-06-11T12:44:05.047Z,27.84
2023-06-11T12:45:09.404Z,27.70
2023-06-11T12:46:13.252Z,27.73
2023-06-11T12:47:17.185Z,27.96
2023-06-11T12:48:20.332Z,27.94
2023-06-11T12:49:24.688Z,28.05
2023-06-11T12:50:28.380Z,28.08
2023-06-11T12:51:32.782Z,27.96
2023-06-11T12:52:36.045Z,27.96
2023-06-11T12:53:39.677Z,27.98
2023-06-11T12:54:43.510Z,28.03
2023-06-11T12:55:47.159Z,28.13
2023-06-11T12:56:51.008Z,28.17
2023-06-11T12:57:54.804Z,28.29
2023-06-11T12:58:57.877Z,28.39
2023-06-11T13:00:01.265Z,28.29
2023-06-11T13:01:05.192Z,28.35
2023-06-11T13:02:08.865Z,28.15
2023-06-11T13:03:12.416Z,28.31
2023-06-11T13:04:16.040Z,28.51
2023-06-11T13:05:19.774Z,28.59
2023-06-11T13:06:23.306Z,28.43
2023-06-11T13:07:27.315Z,28.57
2023-06-11T13:08:32.045Z,28.68
2023-06-11T13:09:35.358Z,28.71
2023-06-11T13:10:40.931Z,28.84
2023-06-11T13:11:44.254Z,28.91
2023-06-11T13:12:47.760Z,28.74
2023-06-11T13:13:51.600Z,28.64
2023-06-11T13:14:54.987Z,28.58
2023-06-11T13:15:58.054Z,28.61
2023-06-11T13:17:02.314Z,28.59
2023-06-11T13:18:05.576Z,29.00
2023-06-11T13:19:08.738Z,29.24
2023-06-11T13:20:13.684Z,29.40
2023-06-11T13:21:17.836Z,29.33
2023-06-11T13:22:21.387Z,29.43
2023-06-11T13:23:28.289Z,29.26
2023-06-11T13:24:32.050Z,29.13
2023-06-11T13:25:35.738Z,29.13
2023-06-11T13:26:39.359Z,28.80
2023-06-11T13:27:42.891Z,28.90
2023-06-11T13:28:46.631Z,29.04
2023-06-11T13:29:50.272Z,29.23
2023-06-11T13:30:54.770Z,29.15
2023-06-11T13:31:58.384Z,29.08
2023-06-11T13:33:02.373Z,29.12
2023-06-11T13:34:06.072Z,29.26
2023-06-11T13:35:09.855Z,29.39
2023-06-11T13:36:13.323Z,29.43
2023-06-11T13:37:16.214Z,29.35
2023-06-11T13:38:19.344Z,29.16
2023-06-11T13:39:23.152Z,29.13
2023-06-11T13:40:26.706Z,29.23
2023-06-11T13:41:30.254Z,29.10
2023-06-11T13:42:33.406Z,28.70
2023-06-11T13:43:36.679Z,28.44
2023-06-11T13:44:40.335Z,28.38
2023-06-11T13:45:45.502Z,28.33
2023-06-11T13:46:48.502Z,28.37
2023-06-11T13:47:52.236Z,28.52
2023-06-11T13:48:55.472Z,28.35
2023-06-11T13:49:59.153Z,28.35
2023-06-11T13:51:02.735Z,28.35
2023-06-11T13:52:06.689Z,28.64
2023-06-11T13:53:10.423Z,28.89
2023-06-11T13:54:13.802Z,29.11
2023-06-11T13:55:17.429Z,29.09
2023-06-11T13:56:21.224Z,29.08
2023-06-11T13:57:29.394Z,28.95
2023-06-11T13:58:32.701Z,28.79
2023-06-11T13:59:36.047Z,28.60